Asherville, Indiana
Current Conditions -  °F | °C
As of 5:53 AM on Friday 31 Oct 2014 (Local Time) from KHUF Reporting Station
Overcast Overcast  
Wind Chill: 42°   Ceiling: 11000
Heat Index: 44°   Visibility: 8mi
Dew Point: 42°   Wind: 5mph
Humidity: 93%   Direction: 300°WNW
Pressure: 30.03"   Gusts: NA
Location:  39.5158°N, 87.1262°W
Report Text: KHUF 310953Z 30004KT 8SM SCT060 OVC110 07/06 A3003 RMK AO2 SLP171 T00670056
Loading
Personal Weather Stations






























Interactive Weather Map
Tropical Storm Tracking
New forecast layout! Learn more

10-Day Weather Forecast

Advertisements
Track Severe Weather on mobile